sensor_id;sensor_type;location;lat;lon;timestamp;temperature;humidity
24518;DHT22;12678;51.336;12.406;2022-08-01T00:01:36;22.80;99.90
24518;DHT22;12678;51.336;12.406;2022-08-01T00:04:02;22.80;99.90
24518;DHT22;12678;51.336;12.406;2022-08-01T00:06:27;22.80;99.90
24518;DHT22;12678;51.336;12.406;2022-08-01T00:08:55;22.80;99.90
24518;DHT22;12678;51.336;12.406;2022-08-01T00:11:21;22.80;99.90
24518;DHT22;12678;51.336;12.406;2022-08-01T00:13:46;22.80;99.90
24518;DHT22;12678;51.336;12.406;2022-08-01T00:16:12;22.80;99.90
24518;DHT22;12678;51.336;12.406;2022-08-01T00:18:37;22.80;99.90
24518;DHT22;12678;51.336;12.406;2022-08-01T00:21:03;22.80;99.90
24518;DHT22;12678;51.336;12.406;2022-08-01T00:23:29;22.80;99.90
24518;DHT22;12678;51.336;12.406;2022-08-01T00:25:54;22.80;99.90
24518;DHT22;12678;51.336;12.406;2022-08-01T00:28:20;22.80;99.90
24518;DHT22;12678;51.336;12.406;2022-08-01T00:30:45;22.80;99.90
24518;DHT22;12678;51.336;12.406;2022-08-01T00:33:11;22.80;99.90
24518;DHT22;12678;51.336;12.406;2022-08-01T00:35:36;22.80;99.90
24518;DHT22;12678;51.336;12.406;2022-08-01T00:38:02;22.80;99.90
24518;DHT22;12678;51.336;12.406;2022-08-01T00:40:28;22.80;99.90
24518;DHT22;12678;51.336;12.406;2022-08-01T00:42:53;22.80;99.90
24518;DHT22;12678;51.336;12.406;2022-08-01T00:45:21;22.80;99.90
24518;DHT22;12678;51.336;12.406;2022-08-01T00:47:47;22.80;99.90
24518;DHT22;12678;51.336;12.406;2022-08-01T00:50:12;22.80;99.90
24518;DHT22;12678;51.336;12.406;2022-08-01T00:52:39;22.70;99.90
24518;DHT22;12678;51.336;12.406;2022-08-01T00:55:04;22.70;99.90
24518;DHT22;12678;51.336;12.406;2022-08-01T00:57:30;22.70;99.90
24518;DHT22;12678;51.336;12.406;2022-08-01T00:59:56;22.70;99.90
24518;DHT22;12678;51.336;12.406;2022-08-01T01:02:21;22.70;99.90
24518;DHT22;12678;51.336;12.406;2022-08-01T01:04:47;22.60;99.90
24518;DHT22;12678;51.336;12.406;2022-08-01T01:07:21;22.60;99.90
24518;DHT22;12678;51.336;12.406;2022-08-01T01:12:31;22.60;99.90
24518;DHT22;12678;51.336;12.406;2022-08-01T01:15:04;22.60;99.90
24518;DHT22;12678;51.336;12.406;2022-08-01T01:17:39;22.60;99.90
24518;DHT22;12678;51.336;12.406;2022-08-01T01:20:06;22.50;99.90
24518;DHT22;12678;51.336;12.406;2022-08-01T01:30:34;22.60;99.90
24518;DHT22;12678;51.336;12.406;2022-08-01T01:33:01;22.70;99.90
24518;DHT22;12678;51.336;12.406;2022-08-01T01:35:29;22.60;99.90
24518;DHT22;12678;51.336;12.406;2022-08-01T01:38:01;22.60;99.90
24518;DHT22;12678;51.336;12.406;2022-08-01T01:40:29;22.50;99.90
24518;DHT22;12678;51.336;12.406;2022-08-01T01:42:55;22.50;99.90
24518;DHT22;12678;51.336;12.406;2022-08-01T01:45:23;22.50;99.90
24518;DHT22;12678;51.336;12.406;2022-08-01T01:47:49;22.50;99.90
24518;DHT22;12678;51.336;12.406;2022-08-01T01:50:15;22.60;99.90
24518;DHT22;12678;51.336;12.406;2022-08-01T01:52:42;22.60;99.90
24518;DHT22;12678;51.336;12.406;2022-08-01T01:55:08;22.70;99.90
24518;DHT22;12678;51.336;12.406;2022-08-01T01:57:36;22.80;99.90
24518;DHT22;12678;51.336;12.406;2022-08-01T02:00:02;22.70;99.90
24518;DHT22;12678;51.336;12.406;2022-08-01T02:02:28;22.70;99.90
24518;DHT22;12678;51.336;12.406;2022-08-01T02:04:54;22.80;99.90
24518;DHT22;12678;51.336;12.406;2022-08-01T02:07:23;22.70;99.90
24518;DHT22;12678;51.336;12.406;2022-08-01T02:09:50;22.60;99.90
24518;DHT22;12678;51.336;12.406;2022-08-01T02:12:16;22.60;99.90
24518;DHT22;12678;51.336;12.406;2022-08-01T02:14:43;22.40;99.90
24518;DHT22;12678;51.336;12.406;2022-08-01T02:17:11;22.40;99.90
24518;DHT22;12678;51.336;12.406;2022-08-01T02:19:37;22.40;99.90
24518;DHT22;12678;51.336;12.406;2022-08-01T02:22:10;22.40;99.90
24518;DHT22;12678;51.336;12.406;2022-08-01T02:24:37;22.30;99.90
24518;DHT22;12678;51.336;12.406;2022-08-01T02:27:07;22.20;99.90
24518;DHT22;12678;51.336;12.406;2022-08-01T02:29:45;22.20;99.90
24518;DHT22;12678;51.336;12.406;2022-08-01T02:32:14;22.30;99.90
24518;DHT22;12678;51.336;12.406;2022-08-01T02:34:41;22.30;99.90
24518;DHT22;12678;51.336;12.406;2022-08-01T02:37:09;22.20;99.90
24518;DHT22;12678;51.336;12.406;2022-08-01T02:39:35;22.20;99.90
24518;DHT22;12678;51.336;12.406;2022-08-01T02:42:02;22.30;99.90
24518;DHT22;12678;51.336;12.406;2022-08-01T02:44:31;22.30;99.90
24518;DHT22;12678;51.336;12.406;2022-08-01T02:46:59;22.30;99.90
24518;DHT22;12678;51.336;12.406;2022-08-01T02:49:29;22.20;99.90
24518;DHT22;12678;51.336;12.406;2022-08-01T02:51:55;22.20;99.90
24518;DHT22;12678;51.336;12.406;2022-08-01T02:54:22;22.20;99.90
24518;DHT22;12678;51.336;12.406;2022-08-01T02:56:48;22.20;99.90
24518;DHT22;12678;51.336;12.406;2022-08-01T02:59:16;22.30;99.90
24518;DHT22;12678;51.336;12.406;2022-08-01T03:01:43;22.30;99.90
24518;DHT22;12678;51.336;12.406;2022-08-01T03:04:10;22.20;99.90
24518;DHT22;12678;51.336;12.406;2022-08-01T03:06:35;22.20;99.90
24518;DHT22;12678;51.336;12.406;2022-08-01T03:09:03;22.30;99.90
24518;DHT22;12678;51.336;12.406;2022-08-01T03:11:29;22.30;99.90
24518;DHT22;12678;51.336;12.406;2022-08-01T03:13:55;22.20;99.90
24518;DHT22;12678;51.336;12.406;2022-08-01T03:16:21;22.30;99.90
24518;DHT22;12678;51.336;12.406;2022-08-01T03:18:48;22.40;99.90
24518;DHT22;12678;51.336;12.406;2022-08-01T03:21:14;22.50;99.90
24518;DHT22;12678;51.336;12.406;2022-08-01T03:23:40;22.30;99.90
24518;DHT22;12678;51.336;12.406;2022-08-01T03:26:06;22.30;99.90
24518;DHT22;12678;51.336;12.406;2022-08-01T03:28:33;22.30;99.90
24518;DHT22;12678;51.336;12.406;2022-08-01T03:30:58;22.40;99.90
24518;DHT22;12678;51.336;12.406;2022-08-01T03:33:25;22.20;99.90
24518;DHT22;12678;51.336;12.406;2022-08-01T03:35:52;22.10;99.90
24518;DHT22;12678;51.336;12.406;2022-08-01T03:38:19;22.10;99.90
24518;DHT22;12678;51.336;12.406;2022-08-01T03:41:10;22.10;99.90
24518;DHT22;12678;51.336;12.406;2022-08-01T03:43:45;22.10;99.90
24518;DHT22;12678;51.336;12.406;2022-08-01T03:46:14;22.10;99.90
24518;DHT22;12678;51.336;12.406;2022-08-01T03:48:43;22.20;99.90
24518;DHT22;12678;51.336;12.406;2022-08-01T03:51:11;22.30;99.90
24518;DHT22;12678;51.336;12.406;2022-08-01T03:53:37;22.20;99.90
24518;DHT22;12678;51.336;12.406;2022-08-01T03:56:04;22.20;99.90
24518;DHT22;12678;51.336;12.406;2022-08-01T03:58:30;22.30;99.90
24518;DHT22;12678;51.336;12.406;2022-08-01T04:00:56;22.20;99.90
24518;DHT22;12678;51.336;12.406;2022-08-01T04:03:22;22.20;99.90
24518;DHT22;12678;51.336;12.406;2022-08-01T04:05:48;22.20;99.90
24518;DHT22;12678;51.336;12.406;2022-08-01T04:08:13;22.30;99.90
24518;DHT22;12678;51.336;12.406;2022-08-01T04:10:39;22.10;99.90
24518;DHT22;12678;51.336;12.406;2022-08-01T04:13:04;22.10;99.90
24518;DHT22;12678;51.336;12.406;2022-08-01T04:15:30;21.90;99.90
24518;DHT22;12678;51.336;12.406;2022-08-01T04:17:55;22.00;99.90
24518;DHT22;12678;51.336;12.406;2022-08-01T04:20:21;22.10;99.90
24518;DHT22;12678;51.336;12.406;2022-08-01T04:22:46;22.10;99.90
24518;DHT22;12678;51.336;12.406;2022-08-01T04:25:14;22.20;99.90
24518;DHT22;12678;51.336;12.406;2022-08-01T04:27:42;22.10;99.90
24518;DHT22;12678;51.336;12.406;2022-08-01T04:30:09;22.10;99.90
24518;DHT22;12678;51.336;12.406;2022-08-01T04:32:35;22.20;99.90
24518;DHT22;12678;51.336;12.406;2022-08-01T04:35:05;22.20;99.90
24518;DHT22;12678;51.336;12.406;2022-08-01T04:37:31;22.20;99.90
24518;DHT22;12678;51.336;12.406;2022-08-01T04:39:57;22.20;99.90
24518;DHT22;12678;51.336;12.406;2022-08-01T04:42:24;22.30;99.90
24518;DHT22;12678;51.336;12.406;2022-08-01T04:44:50;22.30;99.90
24518;DHT22;12678;51.336;12.406;2022-08-01T04:47:15;22.40;99.90
24518;DHT22;12678;51.336;12.406;2022-08-01T04:49:41;22.30;99.90
24518;DHT22;12678;51.336;12.406;2022-08-01T04:52:06;22.30;99.90
24518;DHT22;12678;51.336;12.406;2022-08-01T04:54:35;22.20;99.90
24518;DHT22;12678;51.336;12.406;2022-08-01T04:57:04;22.30;99.90
24518;DHT22;12678;51.336;12.406;2022-08-01T04:59:30;22.30;99.90
24518;DHT22;12678;51.336;12.406;2022-08-01T05:02:05;22.30;99.90
24518;DHT22;12678;51.336;12.406;2022-08-01T05:04:31;22.30;99.90
24518;DHT22;12678;51.336;12.406;2022-08-01T05:06:57;22.40;99.90
24518;DHT22;12678;51.336;12.406;2022-08-01T05:09:22;22.30;99.90
24518;DHT22;12678;51.336;12.406;2022-08-01T05:11:48;22.30;99.90
24518;DHT22;12678;51.336;12.406;2022-08-01T05:14:13;22.30;99.90
24518;DHT22;12678;51.336;12.406;2022-08-01T05:16:39;22.30;99.90
24518;DHT22;12678;51.336;12.406;2022-08-01T05:19:04;22.30;99.90
24518;DHT22;12678;51.336;12.406;2022-08-01T05:21:29;22.40;99.90
24518;DHT22;12678;51.336;12.406;2022-08-01T05:23:55;22.40;99.90
24518;DHT22;12678;51.336;12.406;2022-08-01T05:26:20;22.50;99.90
24518;DHT22;12678;51.336;12.406;2022-08-01T05:28:46;22.50;99.90
24518;DHT22;12678;51.336;12.406;2022-08-01T05:31:11;22.50;99.90
24518;DHT22;12678;51.336;12.406;2022-08-01T05:33:37;22.60;99.90
24518;DHT22;12678;51.336;12.406;2022-08-01T05:36:02;22.70;99.90
24518;DHT22;12678;51.336;12.406;2022-08-01T05:38:28;22.70;99.90
24518;DHT22;12678;51.336;12.406;2022-08-01T05:40:54;22.70;99.90
24518;DHT22;12678;51.336;12.406;2022-08-01T05:43:19;22.80;99.90
24518;DHT22;12678;51.336;12.406;2022-08-01T05:45:45;22.70;99.90
24518;DHT22;12678;51.336;12.406;2022-08-01T05:48:11;22.80;99.90
24518;DHT22;12678;51.336;12.406;2022-08-01T05:50:36;23.00;99.90
24518;DHT22;12678;51.336;12.406;2022-08-01T05:53:02;23.30;99.90
24518;DHT22;12678;51.336;12.406;2022-08-01T05:55:28;23.50;99.90
24518;DHT22;12678;51.336;12.406;2022-08-01T05:57:53;23.70;99.90
24518;DHT22;12678;51.336;12.406;2022-08-01T06:00:19;23.80;99.90
24518;DHT22;12678;51.336;12.406;2022-08-01T06:02:44;23.70;99.90
24518;DHT22;12678;51.336;12.406;2022-08-01T06:05:10;23.80;99.90
24518;DHT22;12678;51.336;12.406;2022-08-01T06:07:36;23.90;99.90
24518;DHT22;12678;51.336;12.406;2022-08-01T06:10:02;23.90;99.90
24518;DHT22;12678;51.336;12.406;2022-08-01T06:12:27;23.70;99.90
24518;DHT22;12678;51.336;12.406;2022-08-01T06:14:53;23.50;99.90
24518;DHT22;12678;51.336;12.406;2022-08-01T06:17:18;23.50;99.90
24518;DHT22;12678;51.336;12.406;2022-08-01T06:19:44;23.50;99.90
24518;DHT22;12678;51.336;12.406;2022-08-01T06:22:09;23.50;99.90
24518;DHT22;12678;51.336;12.406;2022-08-01T06:24:35;23.50;99.90
24518;DHT22;12678;51.336;12.406;2022-08-01T06:27:01;23.50;99.90
24518;DHT22;12678;51.336;12.406;2022-08-01T06:29:27;23.50;99.90
24518;DHT22;12678;51.336;12.406;2022-08-01T06:31:55;23.40;99.90
24518;DHT22;12678;51.336;12.406;2022-08-01T06:34:20;23.40;99.90
24518;DHT22;12678;51.336;12.406;2022-08-01T06:36:47;23.30;99.90
24518;DHT22;12678;51.336;12.406;2022-08-01T06:39:13;23.40;99.90
24518;DHT22;12678;51.336;12.406;2022-08-01T06:41:38;23.40;99.90
24518;DHT22;12678;51.336;12.406;2022-08-01T06:44:06;23.30;99.90
24518;DHT22;12678;51.336;12.406;2022-08-01T06:46:32;23.40;99.90
24518;DHT22;12678;51.336;12.406;2022-08-01T06:48:58;23.20;99.90
24518;DHT22;12678;51.336;12.406;2022-08-01T06:51:23;23.20;99.90
24518;DHT22;12678;51.336;12.406;2022-08-01T06:53:49;23.30;99.90
24518;DHT22;12678;51.336;12.406;2022-08-01T06:56:14;23.50;99.90
24518;DHT22;12678;51.336;12.406;2022-08-01T06:58:40;23.70;99.90
24518;DHT22;12678;51.336;12.406;2022-08-01T07:01:05;24.00;99.90
24518;DHT22;12678;51.336;12.406;2022-08-01T07:03:32;24.10;99.90
24518;DHT22;12678;51.336;12.406;2022-08-01T07:05:58;24.30;99.90
24518;DHT22;12678;51.336;12.406;2022-08-01T07:08:24;24.30;99.90
24518;DHT22;12678;51.336;12.406;2022-08-01T07:10:49;24.40;99.90
24518;DHT22;12678;51.336;12.406;2022-08-01T07:13:15;24.20;99.90
24518;DHT22;12678;51.336;12.406;2022-08-01T07:15:46;24.10;99.90
24518;DHT22;12678;51.336;12.406;2022-08-01T07:18:11;23.90;99.90
24518;DHT22;12678;51.336;12.406;2022-08-01T07:20:37;23.90;99.90
24518;DHT22;12678;51.336;12.406;2022-08-01T07:23:03;23.90;99.90
24518;DHT22;12678;51.336;12.406;2022-08-01T07:25:29;23.80;99.90
24518;DHT22;12678;51.336;12.406;2022-08-01T07:27:55;24.00;99.90
24518;DHT22;12678;51.336;12.406;2022-08-01T07:30:20;24.10;99.90
24518;DHT22;12678;51.336;12.406;2022-08-01T07:32:46;24.40;99.90
24518;DHT22;12678;51.336;12.406;2022-08-01T07:35:12;24.50;99.90
24518;DHT22;12678;51.336;12.406;2022-08-01T07:37:37;24.70;99.90
24518;DHT22;12678;51.336;12.406;2022-08-01T07:40:03;24.60;99.90
24518;DHT22;12678;51.336;12.406;2022-08-01T07:42:30;24.50;99.90
24518;DHT22;12678;51.336;12.406;2022-08-01T07:44:56;24.30;99.90
24518;DHT22;12678;51.336;12.406;2022-08-01T07:47:25;24.10;99.90
24518;DHT22;12678;51.336;12.406;2022-08-01T07:49:51;24.20;99.90
24518;DHT22;12678;51.336;12.406;2022-08-01T07:52:16;24.10;99.90
24518;DHT22;12678;51.336;12.406;2022-08-01T07:54:42;23.80;99.90
24518;DHT22;12678;51.336;12.406;2022-08-01T07:57:08;23.60;99.90
24518;DHT22;12678;51.336;12.406;2022-08-01T07:59:33;23.30;99.90
24518;DHT22;12678;51.336;12.406;2022-08-01T08:01:59;23.20;99.90
24518;DHT22;12678;51.336;12.406;2022-08-01T08:04:25;23.10;99.90
24518;DHT22;12678;51.336;12.406;2022-08-01T08:06:51;23.10;99.90
24518;DHT22;12678;51.336;12.406;2022-08-01T08:09:18;23.00;99.90
24518;DHT22;12678;51.336;12.406;2022-08-01T08:11:44;23.10;99.90
24518;DHT22;12678;51.336;12.406;2022-08-01T08:14:10;23.10;99.90
24518;DHT22;12678;51.336;12.406;2022-08-01T08:16:36;23.20;99.90
24518;DHT22;12678;51.336;12.406;2022-08-01T08:19:02;23.40;99.90
24518;DHT22;12678;51.336;12.406;2022-08-01T08:21:27;24.00;99.90
24518;DHT22;12678;51.336;12.406;2022-08-01T08:23:53;25.00;99.90
24518;DHT22;12678;51.336;12.406;2022-08-01T08:26:37;25.50;99.90
24518;DHT22;12678;51.336;12.406;2022-08-01T08:29:03;26.30;99.90
24518;DHT22;12678;51.336;12.406;2022-08-01T08:31:29;26.70;99.90
24518;DHT22;12678;51.336;12.406;2022-08-01T08:33:54;26.70;99.90
24518;DHT22;12678;51.336;12.406;2022-08-01T08:36:20;26.80;99.90
24518;DHT22;12678;51.336;12.406;2022-08-01T08:38:45;27.10;99.90
24518;DHT22;12678;51.336;12.406;2022-08-01T08:41:11;26.80;99.90
24518;DHT22;12678;51.336;12.406;2022-08-01T08:43:37;26.20;99.90
24518;DHT22;12678;51.336;12.406;2022-08-01T08:46:03;25.80;99.90
24518;DHT22;12678;51.336;12.406;2022-08-01T08:48:30;25.50;99.90
24518;DHT22;12678;51.336;12.406;2022-08-01T08:50:56;25.30;99.90
24518;DHT22;12678;51.336;12.406;2022-08-01T08:53:23;25.10;99.90
24518;DHT22;12678;51.336;12.406;2022-08-01T08:55:49;25.10;99.90
24518;DHT22;12678;51.336;12.406;2022-08-01T08:58:16;25.00;99.90
24518;DHT22;12678;51.336;12.406;2022-08-01T09:00:43;25.10;99.90
24518;DHT22;12678;51.336;12.406;2022-08-01T09:03:09;25.50;99.90
24518;DHT22;12678;51.336;12.406;2022-08-01T09:05:35;25.70;99.90
24518;DHT22;12678;51.336;12.406;2022-08-01T09:08:01;25.70;99.90
24518;DHT22;12678;51.336;12.406;2022-08-01T09:10:26;25.80;99.90
24518;DHT22;12678;51.336;12.406;2022-08-01T09:13:01;25.50;99.90
24518;DHT22;12678;51.336;12.406;2022-08-01T09:15:37;25.40;99.90
24518;DHT22;12678;51.336;12.406;2022-08-01T09:18:03;25.40;99.90
24518;DHT22;12678;51.336;12.406;2022-08-01T09:20:29;25.30;99.90
24518;DHT22;12678;51.336;12.406;2022-08-01T09:22:54;25.00;99.90
24518;DHT22;12678;51.336;12.406;2022-08-01T09:25:20;24.90;99.90
24518;DHT22;12678;51.336;12.406;2022-08-01T09:27:46;24.90;99.90
24518;DHT22;12678;51.336;12.406;2022-08-01T09:32:58;25.20;99.90
24518;DHT22;12678;51.336;12.406;2022-08-01T09:35:29;25.60;99.90
24518;DHT22;12678;51.336;12.406;2022-08-01T09:38:42;26.10;99.90
24518;DHT22;12678;51.336;12.406;2022-08-01T09:40:46;26.00;99.90
24518;DHT22;12678;51.336;12.406;2022-08-01T09:43:13;25.80;99.90
24518;DHT22;12678;51.336;12.406;2022-08-01T09:45:38;25.90;99.90
24518;DHT22;12678;51.336;12.406;2022-08-01T09:48:08;25.90;99.90
24518;DHT22;12678;51.336;12.406;2022-08-01T09:50:41;25.80;99.90
24518;DHT22;12678;51.336;12.406;2022-08-01T09:53:07;25.40;99.90
24518;DHT22;12678;51.336;12.406;2022-08-01T09:55:33;25.30;99.90
24518;DHT22;12678;51.336;12.406;2022-08-01T09:57:59;25.10;99.90
24518;DHT22;12678;51.336;12.406;2022-08-01T10:00:26;25.10;99.90
24518;DHT22;12678;51.336;12.406;2022-08-01T10:02:52;25.30;99.90
24518;DHT22;12678;51.336;12.406;2022-08-01T10:05:17;25.60;99.90
24518;DHT22;12678;51.336;12.406;2022-08-01T10:07:55;26.10;99.90
24518;DHT22;12678;51.336;12.406;2022-08-01T10:10:21;26.20;99.90
24518;DHT22;12678;51.336;12.406;2022-08-01T10:12:46;25.90;99.90
24518;DHT22;12678;51.336;12.406;2022-08-01T10:15:16;25.70;99.90
24518;DHT22;12678;51.336;12.406;2022-08-01T10:17:45;25.60;99.90
24518;DHT22;12678;51.336;12.406;2022-08-01T10:20:11;25.50;99.90
24518;DHT22;12678;51.336;12.406;2022-08-01T10:22:37;25.60;99.90
24518;DHT22;12678;51.336;12.406;2022-08-01T10:25:03;25.70;99.90
24518;DHT22;12678;51.336;12.406;2022-08-01T10:27:29;25.90;99.90
24518;DHT22;12678;51.336;12.406;2022-08-01T10:29:59;25.70;99.90
24518;DHT22;12678;51.336;12.406;2022-08-01T10:32:29;25.70;99.90
24518;DHT22;12678;51.336;12.406;2022-08-01T10:34:55;26.00;99.90
24518;DHT22;12678;51.336;12.406;2022-08-01T10:37:20;26.10;99.90
24518;DHT22;12678;51.336;12.406;2022-08-01T10:39:46;25.90;99.90
24518;DHT22;12678;51.336;12.406;2022-08-01T10:42:11;25.90;99.90
24518;DHT22;12678;51.336;12.406;2022-08-01T10:44:37;26.00;99.90
24518;DHT22;12678;51.336;12.406;2022-08-01T10:47:08;26.00;99.90
24518;DHT22;12678;51.336;12.406;2022-08-01T10:49:34;25.90;99.90
24518;DHT22;12678;51.336;12.406;2022-08-01T10:52:02;25.90;99.90
24518;DHT22;12678;51.336;12.406;2022-08-01T10:54:27;26.00;99.90
24518;DHT22;12678;51.336;12.406;2022-08-01T10:56:53;26.10;99.90
24518;DHT22;12678;51.336;12.406;2022-08-01T10:59:24;26.20;99.90
24518;DHT22;12678;51.336;12.406;2022-08-01T11:04:51;26.60;99.90
24518;DHT22;12678;51.336;12.406;2022-08-01T11:07:23;26.50;99.90
24518;DHT22;12678;51.336;12.406;2022-08-01T11:09:58;26.30;99.90
24518;DHT22;12678;51.336;12.406;2022-08-01T11:12:39;26.20;99.90
24518;DHT22;12678;51.336;12.406;2022-08-01T11:17:33;25.60;99.90
24518;DHT22;12678;51.336;12.406;2022-08-01T11:25:18;25.80;99.90
24518;DHT22;12678;51.336;12.406;2022-08-01T11:27:44;25.90;99.90
24518;DHT22;12678;51.336;12.406;2022-08-01T11:32:49;25.90;99.90
24518;DHT22;12678;51.336;12.406;2022-08-01T11:35:16;25.70;99.90
24518;DHT22;12678;51.336;12.406;2022-08-01T11:37:44;25.60;99.90
24518;DHT22;12678;51.336;12.406;2022-08-01T11:40:17;25.50;99.90
24518;DHT22;12678;51.336;12.406;2022-08-01T11:42:42;25.50;99.90
24518;DHT22;12678;51.336;12.406;2022-08-01T11:45:08;25.60;99.90
24518;DHT22;12678;51.336;12.406;2022-08-01T11:53:02;25.90;99.90
24518;DHT22;12678;51.336;12.406;2022-08-01T11:55:28;25.70;99.90
24518;DHT22;12678;51.336;12.406;2022-08-01T11:57:58;25.90;99.90
24518;DHT22;12678;51.336;12.406;2022-08-01T12:00:24;26.10;99.90
24518;DHT22;12678;51.336;12.406;2022-08-01T12:02:57;26.20;99.90
24518;DHT22;12678;51.336;12.406;2022-08-01T12:05:23;26.00;99.90
24518;DHT22;12678;51.336;12.406;2022-08-01T12:07:49;25.90;99.90
24518;DHT22;12678;51.336;12.406;2022-08-01T12:10:16;25.80;99.90
24518;DHT22;12678;51.336;12.406;2022-08-01T12:12:43;25.70;99.90
24518;DHT22;12678;51.336;12.406;2022-08-01T12:15:09;25.50;99.90
24518;DHT22;12678;51.336;12.406;2022-08-01T12:17:39;25.50;99.90
24518;DHT22;12678;51.336;12.406;2022-08-01T12:20:06;25.50;99.90
24518;DHT22;12678;51.336;12.406;2022-08-01T12:22:33;25.60;99.90
24518;DHT22;12678;51.336;12.406;2022-08-01T12:25:05;25.60;99.90
24518;DHT22;12678;51.336;12.406;2022-08-01T12:27:32;25.40;99.90
24518;DHT22;12678;51.336;12.406;2022-08-01T12:29:58;25.30;99.90
24518;DHT22;12678;51.336;12.406;2022-08-01T12:34:54;25.50;99.90
24518;DHT22;12678;51.336;12.406;2022-08-01T12:37:20;25.50;99.90
24518;DHT22;12678;51.336;12.406;2022-08-01T12:39:46;25.50;99.90
24518;DHT22;12678;51.336;12.406;2022-08-01T12:42:13;25.50;99.90
24518;DHT22;12678;51.336;12.406;2022-08-01T12:44:39;25.50;99.90
24518;DHT22;12678;51.336;12.406;2022-08-01T12:47:06;25.60;99.90
24518;DHT22;12678;51.336;12.406;2022-08-01T12:49:32;25.50;99.90
24518;DHT22;12678;51.336;12.406;2022-08-01T12:51:58;25.50;99.90
24518;DHT22;12678;51.336;12.406;2022-08-01T12:54:24;25.50;99.90
24518;DHT22;12678;51.336;12.406;2022-08-01T12:56:51;25.50;99.90
24518;DHT22;12678;51.336;12.406;2022-08-01T12:59:19;25.50;99.90
24518;DHT22;12678;51.336;12.406;2022-08-01T13:01:45;25.50;99.90
24518;DHT22;12678;51.336;12.406;2022-08-01T13:04:11;25.30;99.90
24518;DHT22;12678;51.336;12.406;2022-08-01T13:06:37;25.30;99.90
24518;DHT22;12678;51.336;12.406;2022-08-01T13:09:06;25.50;99.90
24518;DHT22;12678;51.336;12.406;2022-08-01T13:11:32;25.60;99.90
24518;DHT22;12678;51.336;12.406;2022-08-01T13:13:57;25.70;99.90
24518;DHT22;12678;51.336;12.406;2022-08-01T13:16:24;25.80;99.90
24518;DHT22;12678;51.336;12.406;2022-08-01T13:18:51;25.80;99.90
24518;DHT22;12678;51.336;12.406;2022-08-01T13:21:20;25.70;99.90
24518;DHT22;12678;51.336;12.406;2022-08-01T13:26:40;25.70;99.90
24518;DHT22;12678;51.336;12.406;2022-08-01T13:29:07;25.60;99.90
24518;DHT22;12678;51.336;12.406;2022-08-01T13:31:33;25.60;99.90
24518;DHT22;12678;51.336;12.406;2022-08-01T13:33:59;25.70;99.90
24518;DHT22;12678;51.336;12.406;2022-08-01T13:36:25;25.60;99.90
24518;DHT22;12678;51.336;12.406;2022-08-01T13:38:53;25.50;99.90
24518;DHT22;12678;51.336;12.406;2022-08-01T13:41:37;25.50;99.90
24518;DHT22;12678;51.336;12.406;2022-08-01T13:44:03;25.60;99.90
24518;DHT22;12678;51.336;12.406;2022-08-01T13:46:29;25.60;99.90
24518;DHT22;12678;51.336;12.406;2022-08-01T13:48:54;25.60;99.90
24518;DHT22;12678;51.336;12.406;2022-08-01T13:51:19;25.70;99.90
24518;DHT22;12678;51.336;12.406;2022-08-01T13:53:45;25.70;99.90
24518;DHT22;12678;51.336;12.406;2022-08-01T13:56:10;25.60;99.90
24518;DHT22;12678;51.336;12.406;2022-08-01T13:58:36;25.60;99.90
24518;DHT22;12678;51.336;12.406;2022-08-01T14:01:02;25.70;99.90
24518;DHT22;12678;51.336;12.406;2022-08-01T14:03:27;25.60;99.90
24518;DHT22;12678;51.336;12.406;2022-08-01T14:05:53;25.70;99.90
24518;DHT22;12678;51.336;12.406;2022-08-01T14:08:19;25.90;99.90
24518;DHT22;12678;51.336;12.406;2022-08-01T14:10:44;25.80;99.90
24518;DHT22;12678;51.336;12.406;2022-08-01T14:13:10;25.70;99.90
24518;DHT22;12678;51.336;12.406;2022-08-01T14:15:35;25.60;99.90
24518;DHT22;12678;51.336;12.406;2022-08-01T14:18:01;25.60;99.90
24518;DHT22;12678;51.336;12.406;2022-08-01T14:20:26;25.60;99.90
24518;DHT22;12678;51.336;12.406;2022-08-01T14:22:52;25.60;99.90
24518;DHT22;12678;51.336;12.406;2022-08-01T14:25:17;25.60;99.90
24518;DHT22;12678;51.336;12.406;2022-08-01T14:27:43;25.70;99.90
24518;DHT22;12678;51.336;12.406;2022-08-01T14:30:09;25.70;99.90
24518;DHT22;12678;51.336;12.406;2022-08-01T14:32:35;25.70;99.90
24518;DHT22;12678;51.336;12.406;2022-08-01T14:35:01;25.60;99.90
24518;DHT22;12678;51.336;12.406;2022-08-01T14:37:27;25.60;99.90
24518;DHT22;12678;51.336;12.406;2022-08-01T14:39:54;25.40;99.90
24518;DHT22;12678;51.336;12.406;2022-08-01T14:42:20;25.30;99.90
24518;DHT22;12678;51.336;12.406;2022-08-01T14:44:45;25.20;99.90
24518;DHT22;12678;51.336;12.406;2022-08-01T14:47:11;25.20;99.90
24518;DHT22;12678;51.336;12.406;2022-08-01T14:49:36;25.20;99.90
24518;DHT22;12678;51.336;12.406;2022-08-01T14:52:01;25.20;99.90
24518;DHT22;12678;51.336;12.406;2022-08-01T14:54:27;25.20;99.90
24518;DHT22;12678;51.336;12.406;2022-08-01T14:56:53;25.20;99.90
24518;DHT22;12678;51.336;12.406;2022-08-01T14:59:18;25.10;99.90
24518;DHT22;12678;51.336;12.406;2022-08-01T15:01:44;25.20;99.90
24518;DHT22;12678;51.336;12.406;2022-08-01T15:04:10;25.10;99.90
24518;DHT22;12678;51.336;12.406;2022-08-01T15:06:35;25.10;99.90
24518;DHT22;12678;51.336;12.406;2022-08-01T15:09:01;25.10;99.90
24518;DHT22;12678;51.336;12.406;2022-08-01T15:11:26;25.10;99.90
24518;DHT22;12678;51.336;12.406;2022-08-01T15:13:52;25.10;99.90
24518;DHT22;12678;51.336;12.406;2022-08-01T15:16:36;25.10;99.90
24518;DHT22;12678;51.336;12.406;2022-08-01T15:19:02;25.10;99.90
24518;DHT22;12678;51.336;12.406;2022-08-01T15:21:27;25.10;99.90
24518;DHT22;12678;51.336;12.406;2022-08-01T15:23:52;25.10;99.90
24518;DHT22;12678;51.336;12.406;2022-08-01T15:26:18;25.10;99.90
24518;DHT22;12678;51.336;12.406;2022-08-01T15:28:44;25.00;99.90
24518;DHT22;12678;51.336;12.406;2022-08-01T15:31:09;25.10;99.90
24518;DHT22;12678;51.336;12.406;2022-08-01T15:33:34;25.10;99.90
24518;DHT22;12678;51.336;12.406;2022-08-01T15:36:00;25.20;99.90
24518;DHT22;12678;51.336;12.406;2022-08-01T15:38:25;25.20;99.90
24518;DHT22;12678;51.336;12.406;2022-08-01T15:40:51;25.10;99.90
24518;DHT22;12678;51.336;12.406;2022-08-01T15:43:16;25.20;99.90
24518;DHT22;12678;51.336;12.406;2022-08-01T15:45:42;25.10;99.90
24518;DHT22;12678;51.336;12.406;2022-08-01T15:48:08;25.10;99.90
24518;DHT22;12678;51.336;12.406;2022-08-01T15:50:33;25.00;99.90